Pleasant Grove, Texas
Current Conditions -  °F | °C
As of 12:15 AM on Thursday 29 Jan 2015 (Local Time) from KRFI Reporting Station
Clear Clear  
Wind Chill: 15°   Ceiling: Unl
Heat Index: 15°   Visibility: 10mi
Dew Point:   Wind: 8mph
Humidity: 71%   Direction: 190°S
Pressure: 30.12"   Gusts: NA
Location:  32.1449°N, 94.7416°W
Report Text: KRFI 290615Z AUTO 19007KT 10SM CLR 15/09 A3012 RMK AO2 T01450092
Loading
Personal Weather Stations






























Interactive Weather Map New forecast layout! Learn more

10-Day Weather Forecast

Advertisements
Track Severe Weather on mobile